sensor_id;sensor_type;location;lat;lon;timestamp;P1;durP1;ratioP1;P2;durP2;ratioP2
45714;SDS011;31430;61.646;24.704;2023-03-23T00:02:19;37.78;;;35.42;;
45714;SDS011;31430;61.646;24.704;2023-03-23T00:04:48;37.40;;;35.08;;
45714;SDS011;31430;61.646;24.704;2023-03-23T00:07:14;36.10;;;33.85;;
45714;SDS011;31430;61.646;24.704;2023-03-23T00:09:45;37.00;;;34.70;;
45714;SDS011;31430;61.646;24.704;2023-03-23T00:12:22;37.42;;;35.10;;
45714;SDS011;31430;61.646;24.704;2023-03-23T00:15:07;36.45;;;34.15;;
45714;SDS011;31430;61.646;24.704;2023-03-23T00:17:37;37.03;;;34.72;;
45714;SDS011;31430;61.646;24.704;2023-03-23T00:20:04;36.45;;;34.15;;
45714;SDS011;31430;61.646;24.704;2023-03-23T00:22:30;35.90;;;33.67;;
45714;SDS011;31430;61.646;24.704;2023-03-23T00:25:02;36.28;;;34.00;;
45714;SDS011;31430;61.646;24.704;2023-03-23T00:27:33;35.97;;;33.72;;
45714;SDS011;31430;61.646;24.704;2023-03-23T00:32:25;38.95;;;36.53;;
45714;SDS011;31430;61.646;24.704;2023-03-23T00:34:54;37.88;;;35.50;;
45714;SDS011;31430;61.646;24.704;2023-03-23T00:37:23;37.28;;;34.97;;
45714;SDS011;31430;61.646;24.704;2023-03-23T00:42:16;39.28;;;36.83;;
45714;SDS011;31430;61.646;24.704;2023-03-23T00:44:43;37.97;;;35.60;;
45714;SDS011;31430;61.646;24.704;2023-03-23T00:49:35;38.75;;;36.35;;
45714;SDS011;31430;61.646;24.704;2023-03-23T00:52:03;38.20;;;35.80;;
45714;SDS011;31430;61.646;24.704;2023-03-23T00:54:31;37.03;;;34.72;;
45714;SDS011;31430;61.646;24.704;2023-03-23T00:56:58;36.47;;;34.17;;
45714;SDS011;31430;61.646;24.704;2023-03-23T00:59:24;36.08;;;33.83;;
45714;SDS011;31430;61.646;24.704;2023-03-23T01:04:16;39.35;;;36.90;;
45714;SDS011;31430;61.646;24.704;2023-03-23T01:09:12;40.10;;;37.60;;
45714;SDS011;31430;61.646;24.704;2023-03-23T01:11:40;37.80;;;35.45;;
45714;SDS011;31430;61.646;24.704;2023-03-23T01:14:07;36.92;;;34.63;;
45714;SDS011;31430;61.646;24.704;2023-03-23T01:18:58;39.60;;;37.13;;
45714;SDS011;31430;61.646;24.704;2023-03-23T01:21:24;39.40;;;36.95;;
45714;SDS011;31430;61.646;24.704;2023-03-23T01:23:50;37.33;;;35.00;;
45714;SDS011;31430;61.646;24.704;2023-03-23T01:28:45;39.53;;;37.05;;
45714;SDS011;31430;61.646;24.704;2023-03-23T01:31:12;38.15;;;35.75;;
45714;SDS011;31430;61.646;24.704;2023-03-23T01:33:41;36.60;;;34.30;;
45714;SDS011;31430;61.646;24.704;2023-03-23T01:36:09;36.50;;;34.20;;
45714;SDS011;31430;61.646;24.704;2023-03-23T01:38:37;36.28;;;34.00;;
45714;SDS011;31430;61.646;24.704;2023-03-23T01:43:28;37.70;;;35.35;;
45714;SDS011;31430;61.646;24.704;2023-03-23T01:48:22;39.13;;;36.70;;
45714;SDS011;31430;61.646;24.704;2023-03-23T01:50:58;37.20;;;34.90;;
45714;SDS011;31430;61.646;24.704;2023-03-23T01:53:30;37.08;;;34.78;;
45714;SDS011;31430;61.646;24.704;2023-03-23T01:56:03;36.22;;;33.97;;
45714;SDS011;31430;61.646;24.704;2023-03-23T01:58:31;36.38;;;34.10;;
45714;SDS011;31430;61.646;24.704;2023-03-23T02:00:59;37.05;;;34.75;;
45714;SDS011;31430;61.646;24.704;2023-03-23T02:03:29;35.20;;;33.00;;
45714;SDS011;31430;61.646;24.704;2023-03-23T02:05:57;35.40;;;33.20;;
45714;SDS011;31430;61.646;24.704;2023-03-23T02:08:23;35.88;;;33.65;;
45714;SDS011;31430;61.646;24.704;2023-03-23T02:10:53;36.33;;;34.05;;
45714;SDS011;31430;61.646;24.704;2023-03-23T02:13:19;34.95;;;32.75;;
45714;SDS011;31430;61.646;24.704;2023-03-23T02:15:47;35.72;;;33.50;;
45714;SDS011;31430;61.646;24.704;2023-03-23T02:20:53;34.50;;;32.35;;
45714;SDS011;31430;61.646;24.704;2023-03-23T02:23:36;35.60;;;33.40;;
45714;SDS011;31430;61.646;24.704;2023-03-23T02:27:12;35.20;;;33.00;;
45714;SDS011;31430;61.646;24.704;2023-03-23T02:35:06;36.28;;;34.00;;
45714;SDS011;31430;61.646;24.704;2023-03-23T02:38:18;36.92;;;34.63;;
45714;SDS011;31430;61.646;24.704;2023-03-23T02:40:32;36.45;;;34.15;;
45714;SDS011;31430;61.646;24.704;2023-03-23T02:43:03;35.80;;;33.58;;
45714;SDS011;31430;61.646;24.704;2023-03-23T02:45:34;35.83;;;33.60;;
45714;SDS011;31430;61.646;24.704;2023-03-23T02:48:02;36.15;;;33.90;;
45714;SDS011;31430;61.646;24.704;2023-03-23T02:50:32;35.13;;;32.92;;
45714;SDS011;31430;61.646;24.704;2023-03-23T02:53:01;36.63;;;34.33;;
45714;SDS011;31430;61.646;24.704;2023-03-23T02:55:31;34.13;;;32.00;;
45714;SDS011;31430;61.646;24.704;2023-03-23T02:57:58;35.83;;;33.60;;
45714;SDS011;31430;61.646;24.704;2023-03-23T03:00:27;35.33;;;33.13;;
45714;SDS011;31430;61.646;24.704;2023-03-23T03:02:54;35.65;;;33.45;;
45714;SDS011;31430;61.646;24.704;2023-03-23T03:08:27;35.20;;;33.00;;
45714;SDS011;31430;61.646;24.704;2023-03-23T03:11:03;35.63;;;33.42;;
45714;SDS011;31430;61.646;24.704;2023-03-23T03:21:25;34.30;;;32.17;;
45714;SDS011;31430;61.646;24.704;2023-03-23T03:23:55;34.65;;;32.47;;
45714;SDS011;31430;61.646;24.704;2023-03-23T03:26:25;35.50;;;33.30;;
45714;SDS011;31430;61.646;24.704;2023-03-23T03:28:54;35.33;;;33.13;;
45714;SDS011;31430;61.646;24.704;2023-03-23T03:31:24;35.60;;;33.40;;
45714;SDS011;31430;61.646;24.704;2023-03-23T03:33:54;35.22;;;33.03;;
45714;SDS011;31430;61.646;24.704;2023-03-23T03:36:21;33.80;;;31.70;;
45714;SDS011;31430;61.646;24.704;2023-03-23T03:38:51;34.28;;;32.15;;
45714;SDS011;31430;61.646;24.704;2023-03-23T03:41:17;35.00;;;32.80;;
45714;SDS011;31430;61.646;24.704;2023-03-23T03:43:43;34.05;;;31.95;;
45714;SDS011;31430;61.646;24.704;2023-03-23T03:48:35;36.55;;;34.25;;
45714;SDS011;31430;61.646;24.704;2023-03-23T03:53:27;37.00;;;34.70;;
45714;SDS011;31430;61.646;24.704;2023-03-23T03:58:25;37.60;;;35.25;;
45714;SDS011;31430;61.646;24.704;2023-03-23T04:00:56;36.63;;;34.33;;
45714;SDS011;31430;61.646;24.704;2023-03-23T04:03:26;36.03;;;33.78;;
45714;SDS011;31430;61.646;24.704;2023-03-23T04:05:53;35.20;;;33.00;;
45714;SDS011;31430;61.646;24.704;2023-03-23T04:08:22;34.25;;;32.13;;
45714;SDS011;31430;61.646;24.704;2023-03-23T04:10:48;34.63;;;32.45;;
45714;SDS011;31430;61.646;24.704;2023-03-23T04:13:14;35.20;;;33.00;;
45714;SDS011;31430;61.646;24.704;2023-03-23T04:15:41;32.85;;;30.80;;
45714;SDS011;31430;61.646;24.704;2023-03-23T04:18:08;33.28;;;31.17;;
45714;SDS011;31430;61.646;24.704;2023-03-23T04:20:34;33.75;;;31.65;;
45714;SDS011;31430;61.646;24.704;2023-03-23T04:25:25;35.60;;;33.40;;
45714;SDS011;31430;61.646;24.704;2023-03-23T04:27:52;35.05;;;32.85;;
45714;SDS011;31430;61.646;24.704;2023-03-23T04:32:49;36.83;;;34.53;;
45714;SDS011;31430;61.646;24.704;2023-03-23T04:35:17;35.20;;;33.00;;
45714;SDS011;31430;61.646;24.704;2023-03-23T04:37:44;35.22;;;33.03;;
45714;SDS011;31430;61.646;24.704;2023-03-23T04:40:11;34.53;;;32.38;;
45714;SDS011;31430;61.646;24.704;2023-03-23T04:42:39;35.55;;;33.35;;
45714;SDS011;31430;61.646;24.704;2023-03-23T04:45:16;34.65;;;32.47;;
45714;SDS011;31430;61.646;24.704;2023-03-23T04:47:46;35.10;;;32.90;;
45714;SDS011;31430;61.646;24.704;2023-03-23T04:50:22;34.40;;;32.27;;
45714;SDS011;31430;61.646;24.704;2023-03-23T04:52:53;35.08;;;32.88;;
45714;SDS011;31430;61.646;24.704;2023-03-23T04:55:22;34.35;;;32.20;;
45714;SDS011;31430;61.646;24.704;2023-03-23T04:57:48;34.28;;;32.15;;
45714;SDS011;31430;61.646;24.704;2023-03-23T05:02:42;36.80;;;34.50;;
45714;SDS011;31430;61.646;24.704;2023-03-23T05:05:10;34.85;;;32.65;;
45714;SDS011;31430;61.646;24.704;2023-03-23T05:07:39;34.67;;;32.50;;
45714;SDS011;31430;61.646;24.704;2023-03-23T05:10:07;34.67;;;32.50;;
45714;SDS011;31430;61.646;24.704;2023-03-23T05:12:35;34.28;;;32.15;;
45714;SDS011;31430;61.646;24.704;2023-03-23T05:17:26;34.83;;;32.63;;
45714;SDS011;31430;61.646;24.704;2023-03-23T05:22:18;35.83;;;33.60;;
45714;SDS011;31430;61.646;24.704;2023-03-23T05:24:46;34.83;;;32.63;;
45714;SDS011;31430;61.646;24.704;2023-03-23T05:27:12;35.45;;;33.25;;
45714;SDS011;31430;61.646;24.704;2023-03-23T05:29:39;35.03;;;32.83;;
45714;SDS011;31430;61.646;24.704;2023-03-23T05:32:06;35.40;;;33.20;;
45714;SDS011;31430;61.646;24.704;2023-03-23T05:34:33;33.53;;;31.42;;
45714;SDS011;31430;61.646;24.704;2023-03-23T05:36:59;34.88;;;32.67;;
45714;SDS011;31430;61.646;24.704;2023-03-23T05:39:30;34.67;;;32.50;;
45714;SDS011;31430;61.646;24.704;2023-03-23T05:41:57;34.40;;;32.25;;
45714;SDS011;31430;61.646;24.704;2023-03-23T05:46:49;36.92;;;34.63;;
45714;SDS011;31430;61.646;24.704;2023-03-23T05:49:15;36.33;;;34.05;;
45714;SDS011;31430;61.646;24.704;2023-03-23T05:51:41;35.60;;;33.40;;
45714;SDS011;31430;61.646;24.704;2023-03-23T05:54:11;34.05;;;31.95;;
45714;SDS011;31430;61.646;24.704;2023-03-23T05:56:37;34.67;;;32.50;;
45714;SDS011;31430;61.646;24.704;2023-03-23T06:01:28;37.95;;;35.55;;
45714;SDS011;31430;61.646;24.704;2023-03-23T06:06:24;36.58;;;34.28;;
45714;SDS011;31430;61.646;24.704;2023-03-23T06:08:50;35.70;;;33.50;;
45714;SDS011;31430;61.646;24.704;2023-03-23T06:11:16;35.85;;;33.63;;
45714;SDS011;31430;61.646;24.704;2023-03-23T06:13:42;36.17;;;33.90;;
45714;SDS011;31430;61.646;24.704;2023-03-23T06:16:09;34.65;;;32.47;;
45714;SDS011;31430;61.646;24.704;2023-03-23T06:18:35;35.00;;;32.80;;
45714;SDS011;31430;61.646;24.704;2023-03-23T06:21:02;34.17;;;32.05;;
45714;SDS011;31430;61.646;24.704;2023-03-23T06:23:29;35.10;;;32.90;;
45714;SDS011;31430;61.646;24.704;2023-03-23T06:25:59;34.15;;;32.05;;
45714;SDS011;31430;61.646;24.704;2023-03-23T06:28:26;34.78;;;32.58;;
45714;SDS011;31430;61.646;24.704;2023-03-23T06:30:52;34.08;;;31.98;;
45714;SDS011;31430;61.646;24.704;2023-03-23T06:35:44;35.50;;;33.30;;
45714;SDS011;31430;61.646;24.704;2023-03-23T06:40:36;37.83;;;35.47;;
45714;SDS011;31430;61.646;24.704;2023-03-23T06:45:28;37.10;;;34.80;;
45714;SDS011;31430;61.646;24.704;2023-03-23T06:50:20;37.67;;;35.33;;
45714;SDS011;31430;61.646;24.704;2023-03-23T06:52:46;36.90;;;34.60;;
45714;SDS011;31430;61.646;24.704;2023-03-23T06:55:13;34.92;;;32.72;;
45714;SDS011;31430;61.646;24.704;2023-03-23T06:57:40;34.72;;;32.55;;
45714;SDS011;31430;61.646;24.704;2023-03-23T07:00:08;34.85;;;32.65;;
45714;SDS011;31430;61.646;24.704;2023-03-23T07:02:37;35.00;;;32.80;;
45714;SDS011;31430;61.646;24.704;2023-03-23T07:05:03;35.63;;;33.40;;
45714;SDS011;31430;61.646;24.704;2023-03-23T07:07:29;35.10;;;32.90;;
45714;SDS011;31430;61.646;24.704;2023-03-23T07:09:55;35.47;;;33.28;;
45714;SDS011;31430;61.646;24.704;2023-03-23T07:12:21;35.05;;;32.85;;
45714;SDS011;31430;61.646;24.704;2023-03-23T07:14:47;34.15;;;32.05;;
45714;SDS011;31430;61.646;24.704;2023-03-23T07:19:39;36.25;;;33.97;;
45714;SDS011;31430;61.646;24.704;2023-03-23T07:22:05;35.67;;;33.47;;
45714;SDS011;31430;61.646;24.704;2023-03-23T07:24:32;34.95;;;32.75;;
45714;SDS011;31430;61.646;24.704;2023-03-23T07:26:58;35.53;;;33.33;;
45714;SDS011;31430;61.646;24.704;2023-03-23T07:29:24;33.50;;;31.40;;
45714;SDS011;31430;61.646;24.704;2023-03-23T07:34:17;36.10;;;33.85;;
45714;SDS011;31430;61.646;24.704;2023-03-23T07:36:44;35.83;;;33.60;;
45714;SDS011;31430;61.646;24.704;2023-03-23T07:39:10;35.15;;;32.95;;
45714;SDS011;31430;61.646;24.704;2023-03-23T07:41:37;34.05;;;31.95;;
45714;SDS011;31430;61.646;24.704;2023-03-23T07:44:03;33.92;;;31.83;;
45714;SDS011;31430;61.646;24.704;2023-03-23T07:46:30;35.10;;;32.90;;
45714;SDS011;31430;61.646;24.704;2023-03-23T07:51:22;36.60;;;34.30;;
45714;SDS011;31430;61.646;24.704;2023-03-23T07:53:48;36.05;;;33.80;;
45714;SDS011;31430;61.646;24.704;2023-03-23T07:56:14;35.25;;;33.05;;
45714;SDS011;31430;61.646;24.704;2023-03-23T07:58:44;35.90;;;33.67;;
45714;SDS011;31430;61.646;24.704;2023-03-23T08:01:12;35.75;;;33.55;;
45714;SDS011;31430;61.646;24.704;2023-03-23T08:03:38;34.80;;;32.60;;
45714;SDS011;31430;61.646;24.704;2023-03-23T08:08:30;38.10;;;35.70;;
45714;SDS011;31430;61.646;24.704;2023-03-23T08:13:22;36.67;;;34.38;;
45714;SDS011;31430;61.646;24.704;2023-03-23T08:18:14;37.13;;;34.83;;
45714;SDS011;31430;61.646;24.704;2023-03-23T08:23:06;36.90;;;34.60;;
45714;SDS011;31430;61.646;24.704;2023-03-23T08:27:58;36.60;;;34.30;;
45714;SDS011;31430;61.646;24.704;2023-03-23T08:30:26;36.50;;;34.20;;
45714;SDS011;31430;61.646;24.704;2023-03-23T08:32:55;35.53;;;33.33;;
45714;SDS011;31430;61.646;24.704;2023-03-23T08:35:22;35.10;;;32.90;;
45714;SDS011;31430;61.646;24.704;2023-03-23T08:37:48;34.10;;;32.00;;
45714;SDS011;31430;61.646;24.704;2023-03-23T08:40:16;33.97;;;31.88;;
45714;SDS011;31430;61.646;24.704;2023-03-23T08:42:44;34.38;;;32.22;;
45714;SDS011;31430;61.646;24.704;2023-03-23T08:45:11;34.58;;;32.40;;
45714;SDS011;31430;61.646;24.704;2023-03-23T08:47:40;34.22;;;32.10;;
45714;SDS011;31430;61.646;24.704;2023-03-23T08:50:06;33.33;;;31.23;;
45714;SDS011;31430;61.646;24.704;2023-03-23T08:52:35;34.30;;;32.17;;
45714;SDS011;31430;61.646;24.704;2023-03-23T08:55:02;34.67;;;32.50;;
45714;SDS011;31430;61.646;24.704;2023-03-23T08:57:28;34.25;;;32.13;;
45714;SDS011;31430;61.646;24.704;2023-03-23T08:59:54;33.45;;;31.35;;
45714;SDS011;31430;61.646;24.704;2023-03-23T09:02:25;33.70;;;31.60;;
45714;SDS011;31430;61.646;24.704;2023-03-23T09:04:52;34.05;;;31.95;;
45714;SDS011;31430;61.646;24.704;2023-03-23T09:07:18;33.70;;;31.60;;
45714;SDS011;31430;61.646;24.704;2023-03-23T09:12:10;34.67;;;32.50;;
45714;SDS011;31430;61.646;24.704;2023-03-23T09:17:02;35.93;;;33.70;;
45714;SDS011;31430;61.646;24.704;2023-03-23T09:21:54;36.38;;;34.10;;
45714;SDS011;31430;61.646;24.704;2023-03-23T09:24:20;35.80;;;33.58;;
45714;SDS011;31430;61.646;24.704;2023-03-23T09:26:46;35.00;;;32.80;;
45714;SDS011;31430;61.646;24.704;2023-03-23T09:29:12;34.42;;;32.28;;
45714;SDS011;31430;61.646;24.704;2023-03-23T09:34:06;36.50;;;34.20;;
45714;SDS011;31430;61.646;24.704;2023-03-23T09:36:34;34.63;;;32.45;;
45714;SDS011;31430;61.646;24.704;2023-03-23T09:39:01;34.35;;;32.20;;
45714;SDS011;31430;61.646;24.704;2023-03-23T09:50:02;35.53;;;33.33;;
45714;SDS011;31430;61.646;24.704;2023-03-23T09:52:43;35.10;;;32.90;;
45714;SDS011;31430;61.646;24.704;2023-03-23T09:55:23;34.38;;;32.22;;
45714;SDS011;31430;61.646;24.704;2023-03-23T09:58:03;33.45;;;31.35;;
45714;SDS011;31430;61.646;24.704;2023-03-23T10:00:41;33.88;;;31.77;;
45714;SDS011;31430;61.646;24.704;2023-03-23T10:03:19;33.72;;;31.63;;
45714;SDS011;31430;61.646;24.704;2023-03-23T10:05:48;34.25;;;32.13;;
45714;SDS011;31430;61.646;24.704;2023-03-23T10:08:22;33.20;;;31.10;;
45714;SDS011;31430;61.646;24.704;2023-03-23T10:14:02;33.80;;;31.70;;
45714;SDS011;31430;61.646;24.704;2023-03-23T10:16:40;33.30;;;31.20;;
45714;SDS011;31430;61.646;24.704;2023-03-23T10:21:56;35.63;;;33.42;;
45714;SDS011;31430;61.646;24.704;2023-03-23T10:24:31;35.05;;;32.85;;
45714;SDS011;31430;61.646;24.704;2023-03-23T10:27:33;33.72;;;31.63;;
45714;SDS011;31430;61.646;24.704;2023-03-23T10:30:26;34.90;;;32.70;;
45714;SDS011;31430;61.646;24.704;2023-03-23T10:35:48;33.47;;;31.38;;
45714;SDS011;31430;61.646;24.704;2023-03-23T10:38:38;33.83;;;31.73;;
45714;SDS011;31430;61.646;24.704;2023-03-23T10:41:12;33.28;;;31.17;;
45714;SDS011;31430;61.646;24.704;2023-03-23T10:43:43;33.33;;;31.23;;
45714;SDS011;31430;61.646;24.704;2023-03-23T10:49:08;32.97;;;30.90;;
45714;SDS011;31430;61.646;24.704;2023-03-23T10:51:37;32.83;;;30.77;;
45714;SDS011;31430;61.646;24.704;2023-03-23T10:54:07;33.88;;;31.77;;
45714;SDS011;31430;61.646;24.704;2023-03-23T10:59:12;35.60;;;33.40;;
45714;SDS011;31430;61.646;24.704;2023-03-23T11:01:37;33.47;;;31.38;;
45714;SDS011;31430;61.646;24.704;2023-03-23T11:04:03;33.00;;;30.92;;
45714;SDS011;31430;61.646;24.704;2023-03-23T11:06:43;33.50;;;31.40;;
45714;SDS011;31430;61.646;24.704;2023-03-23T11:09:18;33.33;;;31.23;;
45714;SDS011;31430;61.646;24.704;2023-03-23T11:11:49;32.50;;;30.50;;
45714;SDS011;31430;61.646;24.704;2023-03-23T11:14:27;34.00;;;31.88;;
45714;SDS011;31430;61.646;24.704;2023-03-23T11:16:59;33.90;;;31.80;;
45714;SDS011;31430;61.646;24.704;2023-03-23T11:19:34;33.35;;;31.25;;
45714;SDS011;31430;61.646;24.704;2023-03-23T11:24:34;32.97;;;30.90;;
45714;SDS011;31430;61.646;24.704;2023-03-23T11:27:08;32.35;;;30.35;;
45714;SDS011;31430;61.646;24.704;2023-03-23T11:29:35;32.53;;;30.52;;
45714;SDS011;31430;61.646;24.704;2023-03-23T11:32:12;32.00;;;30.00;;
45714;SDS011;31430;61.646;24.704;2023-03-23T11:34:43;31.35;;;29.38;;
45714;SDS011;31430;61.646;24.704;2023-03-23T11:37:25;32.00;;;30.00;;
45714;SDS011;31430;61.646;24.704;2023-03-23T11:39:55;32.47;;;30.48;;
45714;SDS011;31430;61.646;24.704;2023-03-23T11:42:33;31.73;;;29.73;;
45714;SDS011;31430;61.646;24.704;2023-03-23T11:47:45;34.90;;;32.70;;
45714;SDS011;31430;61.646;24.704;2023-03-23T11:50:29;33.75;;;31.65;;
45714;SDS011;31430;61.646;24.704;2023-03-23T11:58:57;33.23;;;31.13;;
45714;SDS011;31430;61.646;24.704;2023-03-23T12:01:31;32.10;;;30.10;;
45714;SDS011;31430;61.646;24.704;2023-03-23T12:09:49;32.70;;;30.67;;
45714;SDS011;31430;61.646;24.704;2023-03-23T12:18:17;33.33;;;31.23;;
45714;SDS011;31430;61.646;24.704;2023-03-23T12:31:18;33.60;;;31.50;;
45714;SDS011;31430;61.646;24.704;2023-03-23T12:36:39;34.13;;;32.00;;
45714;SDS011;31430;61.646;24.704;2023-03-23T12:42:07;33.60;;;31.50;;
45714;SDS011;31430;61.646;24.704;2023-03-23T12:44:56;34.25;;;32.13;;
45714;SDS011;31430;61.646;24.704;2023-03-23T12:47:40;35.20;;;33.00;;
45714;SDS011;31430;61.646;24.704;2023-03-23T12:57:56;34.05;;;31.95;;
45714;SDS011;31430;61.646;24.704;2023-03-23T13:03:17;34.00;;;31.90;;
45714;SDS011;31430;61.646;24.704;2023-03-23T13:05:46;33.75;;;31.65;;
45714;SDS011;31430;61.646;24.704;2023-03-23T13:08:28;34.25;;;32.13;;
45714;SDS011;31430;61.646;24.704;2023-03-23T13:11:00;34.63;;;32.45;;
45714;SDS011;31430;61.646;24.704;2023-03-23T13:13:44;34.17;;;32.05;;
45714;SDS011;31430;61.646;24.704;2023-03-23T13:22:26;33.88;;;31.77;;
45714;SDS011;31430;61.646;24.704;2023-03-23T13:25:00;33.55;;;31.45;;
45714;SDS011;31430;61.646;24.704;2023-03-23T13:27:29;35.10;;;32.90;;
45714;SDS011;31430;61.646;24.704;2023-03-23T13:29:55;33.55;;;31.45;;
45714;SDS011;31430;61.646;24.704;2023-03-23T13:32:28;34.17;;;32.05;;
45714;SDS011;31430;61.646;24.704;2023-03-23T13:35:00;34.03;;;31.92;;
45714;SDS011;31430;61.646;24.704;2023-03-23T13:37:31;33.90;;;31.80;;
45714;SDS011;31430;61.646;24.704;2023-03-23T13:40:11;33.58;;;31.48;;
45714;SDS011;31430;61.646;24.704;2023-03-23T13:42:58;33.88;;;31.77;;
45714;SDS011;31430;61.646;24.704;2023-03-23T13:53:21;32.25;;;30.25;;
45714;SDS011;31430;61.646;24.704;2023-03-23T13:56:16;32.72;;;30.70;;
45714;SDS011;31430;61.646;24.704;2023-03-23T13:58:50;33.60;;;31.50;;
45714;SDS011;31430;61.646;24.704;2023-03-23T14:01:33;33.30;;;31.20;;
45714;SDS011;31430;61.646;24.704;2023-03-23T14:04:04;32.08;;;30.08;;
45714;SDS011;31430;61.646;24.704;2023-03-23T14:06:35;33.88;;;31.77;;
45714;SDS011;31430;61.646;24.704;2023-03-23T14:09:13;32.30;;;30.30;;
45714;SDS011;31430;61.646;24.704;2023-03-23T14:12:03;33.15;;;31.05;;
45714;SDS011;31430;61.646;24.704;2023-03-23T14:14:44;32.95;;;30.88;;
45714;SDS011;31430;61.646;24.704;2023-03-23T14:19:46;33.60;;;31.50;;
45714;SDS011;31430;61.646;24.704;2023-03-23T14:22:17;33.80;;;31.70;;
45714;SDS011;31430;61.646;24.704;2023-03-23T14:25:10;34.67;;;32.50;;
45714;SDS011;31430;61.646;24.704;2023-03-23T14:27:38;35.05;;;32.85;;
45714;SDS011;31430;61.646;24.704;2023-03-23T14:30:08;34.83;;;32.63;;
45714;SDS011;31430;61.646;24.704;2023-03-23T14:32:45;34.92;;;32.72;;
45714;SDS011;31430;61.646;24.704;2023-03-23T14:37:49;35.83;;;33.63;;
45714;SDS011;31430;61.646;24.704;2023-03-23T14:42:41;44.35;;;41.60;;
45714;SDS011;31430;61.646;24.704;2023-03-23T14:45:10;35.25;;;33.05;;
45714;SDS011;31430;61.646;24.704;2023-03-23T14:50:37;34.90;;;32.70;;
45714;SDS011;31430;61.646;24.704;2023-03-23T14:55:49;35.08;;;32.88;;
45714;SDS011;31430;61.646;24.704;2023-03-23T14:58:17;34.00;;;31.90;;
45714;SDS011;31430;61.646;24.704;2023-03-23T15:03:16;33.47;;;31.38;;
45714;SDS011;31430;61.646;24.704;2023-03-23T15:05:44;33.63;;;31.52;;
45714;SDS011;31430;61.646;24.704;2023-03-23T15:08:25;33.40;;;31.30;;
45714;SDS011;31430;61.646;24.704;2023-03-23T15:11:06;34.25;;;32.13;;
45714;SDS011;31430;61.646;24.704;2023-03-23T15:13:36;33.13;;;31.02;;
45714;SDS011;31430;61.646;24.704;2023-03-23T15:16:17;33.00;;;30.92;;
45714;SDS011;31430;61.646;24.704;2023-03-23T15:18:50;34.67;;;32.50;;
45714;SDS011;31430;61.646;24.704;2023-03-23T15:23:59;33.80;;;31.70;;
45714;SDS011;31430;61.646;24.704;2023-03-23T15:31:46;43.03;;;40.37;;
45714;SDS011;31430;61.646;24.704;2023-03-23T15:34:24;35.30;;;33.10;;
45714;SDS011;31430;61.646;24.704;2023-03-23T15:37:01;34.13;;;32.00;;
45714;SDS011;31430;61.646;24.704;2023-03-23T15:39:28;34.33;;;32.20;;
45714;SDS011;31430;61.646;24.704;2023-03-23T15:41:55;34.35;;;32.22;;
45714;SDS011;31430;61.646;24.704;2023-03-23T15:44:26;34.47;;;32.33;;
45714;SDS011;31430;61.646;24.704;2023-03-23T15:47:33;33.20;;;31.10;;
45714;SDS011;31430;61.646;24.704;2023-03-23T15:50:01;35.20;;;33.00;;
45714;SDS011;31430;61.646;24.704;2023-03-23T15:52:33;35.58;;;33.35;;
45714;SDS011;31430;61.646;24.704;2023-03-23T15:57:24;37.25;;;34.95;;
45714;SDS011;31430;61.646;24.704;2023-03-23T15:59:50;34.40;;;32.25;;
45714;SDS011;31430;61.646;24.704;2023-03-23T16:02:20;35.55;;;33.35;;
45714;SDS011;31430;61.646;24.704;2023-03-23T16:04:48;35.35;;;33.15;;
45714;SDS011;31430;61.646;24.704;2023-03-23T16:07:15;34.38;;;32.22;;
45714;SDS011;31430;61.646;24.704;2023-03-23T16:09:41;34.88;;;32.67;;
45714;SDS011;31430;61.646;24.704;2023-03-23T16:12:09;34.95;;;32.75;;
45714;SDS011;31430;61.646;24.704;2023-03-23T16:14:37;33.58;;;31.48;;
45714;SDS011;31430;61.646;24.704;2023-03-23T16:17:04;35.22;;;33.03;;
45714;SDS011;31430;61.646;24.704;2023-03-23T16:21:55;35.20;;;33.00;;
45714;SDS011;31430;61.646;24.704;2023-03-23T16:24:21;35.22;;;33.03;;
45714;SDS011;31430;61.646;24.704;2023-03-23T16:26:47;35.40;;;33.20;;
45714;SDS011;31430;61.646;24.704;2023-03-23T16:29:13;35.55;;;33.35;;
45714;SDS011;31430;61.646;24.704;2023-03-23T16:31:40;35.22;;;33.03;;
45714;SDS011;31430;61.646;24.704;2023-03-23T16:34:06;34.28;;;32.13;;
45714;SDS011;31430;61.646;24.704;2023-03-23T16:36:32;34.03;;;31.92;;
45714;SDS011;31430;61.646;24.704;2023-03-23T16:38:59;33.30;;;31.20;;
45714;SDS011;31430;61.646;24.704;2023-03-23T16:43:50;36.45;;;34.15;;
45714;SDS011;31430;61.646;24.704;2023-03-23T16:46:16;35.58;;;33.38;;
45714;SDS011;31430;61.646;24.704;2023-03-23T16:51:07;36.80;;;34.50;;
45714;SDS011;31430;61.646;24.704;2023-03-23T16:53:33;35.83;;;33.60;;
45714;SDS011;31430;61.646;24.704;2023-03-23T16:56:00;35.92;;;33.70;;
45714;SDS011;31430;61.646;24.704;2023-03-23T16:58:26;35.03;;;32.83;;
45714;SDS011;31430;61.646;24.704;2023-03-23T17:03:18;37.00;;;34.70;;
45714;SDS011;31430;61.646;24.704;2023-03-23T17:05:46;36.42;;;34.13;;
45714;SDS011;31430;61.646;24.704;2023-03-23T17:08:15;35.58;;;33.38;;
45714;SDS011;31430;61.646;24.704;2023-03-23T17:10:42;34.97;;;32.78;;
45714;SDS011;31430;61.646;24.704;2023-03-23T17:13:08;34.53;;;32.35;;
45714;SDS011;31430;61.646;24.704;2023-03-23T17:15:35;35.63;;;33.42;;
45714;SDS011;31430;61.646;24.704;2023-03-23T17:18:02;34.90;;;32.70;;
45714;SDS011;31430;61.646;24.704;2023-03-23T17:20:28;36.00;;;33.78;;
45714;SDS011;31430;61.646;24.704;2023-03-23T17:25:19;36.72;;;34.42;;
45714;SDS011;31430;61.646;24.704;2023-03-23T17:27:45;35.67;;;33.47;;
45714;SDS011;31430;61.646;24.704;2023-03-23T17:32:36;38.55;;;36.15;;
45714;SDS011;31430;61.646;24.704;2023-03-23T17:35:03;35.83;;;33.63;;
45714;SDS011;31430;61.646;24.704;2023-03-23T17:37:30;37.13;;;34.83;;
45714;SDS011;31430;61.646;24.704;2023-03-23T17:39:56;36.70;;;34.40;;
45714;SDS011;31430;61.646;24.704;2023-03-23T17:42:21;37.53;;;35.20;;
45714;SDS011;31430;61.646;24.704;2023-03-23T17:47:13;38.55;;;36.15;;
45714;SDS011;31430;61.646;24.704;2023-03-23T17:49:39;36.58;;;34.28;;
45714;SDS011;31430;61.646;24.704;2023-03-23T17:52:05;35.95;;;33.72;;
45714;SDS011;31430;61.646;24.704;2023-03-23T17:56:56;38.47;;;36.08;;
45714;SDS011;31430;61.646;24.704;2023-03-23T17:59:24;37.92;;;35.55;;
45714;SDS011;31430;61.646;24.704;2023-03-23T18:01:50;36.80;;;34.50;;
45714;SDS011;31430;61.646;24.704;2023-03-23T18:04:17;36.25;;;33.97;;
45714;SDS011;31430;61.646;24.704;2023-03-23T18:06:43;37.05;;;34.75;;
45714;SDS011;31430;61.646;24.704;2023-03-23T18:09:09;36.70;;;34.40;;
45714;SDS011;31430;61.646;24.704;2023-03-23T18:14:00;38.85;;;36.45;;
45714;SDS011;31430;61.646;24.704;2023-03-23T18:18:51;40.35;;;37.85;;
45714;SDS011;31430;61.646;24.704;2023-03-23T18:23:43;42.53;;;39.88;;
45714;SDS011;31430;61.646;24.704;2023-03-23T18:28:35;48.10;;;45.10;;
45714;SDS011;31430;61.646;24.704;2023-03-23T18:33:32;40.65;;;38.15;;
45714;SDS011;31430;61.646;24.704;2023-03-23T18:36:00;41.13;;;38.55;;